• Join FlightAware (Why Join?)
  • Login
  • US Flag 
10:18AM EDT


 

Airport Tracker/Info


-or-


 

Live Flight TrackerFlight Track Log ✈ SKW6225 ✈ 23-Apr-2013 ✈ KDFW - KORD

Flight Track Log - Related Links

Times and Time Zones

All times are in EDT time to prevent confusion due to time zone crossing. See the SKW6225 flight status page for this flight to view local times or setup timezone preferences in your user account.

Time Position Orientation Groundspeed Altitude Reporting Facility
EDT Latitude Longitude Course Direction KTS MPH feet Rate Location/Type
10:29PM 32.9333 -97.0333 348° North 178 205 3,700  Level Dallas / Fort Worth TRACON
10:30PM 33.0000 -97.0167 12° North 273 314 5,000 2,460 Climbing Dallas / Fort Worth TRACON
10:31PM 32.8796 -96.8000 North  Level FlightAware Approximate
10:32PM 33.0083 -96.8000 North  Level FlightAware Approximate
10:32PM 33.1478 -96.9519 20° North 302 348 10,600  Level Fort Worth Center
10:33PM 33.1370 -96.8000 North  Level FlightAware Approximate
10:33PM 33.2394 -96.9142 19° North 328 377 12,300  Level Fort Worth Center
10:34PM 33.2651 -96.8079 348° North  Level FlightAware Approximate
10:34PM 33.3458 -96.8689 20° North 378 435 14,800  Level Fort Worth Center
10:35PM 33.4394 -96.8236 22° Northeast 397 457 17,600 2,400 Climbing Fort Worth Center
10:36PM 33.5581 -96.7753 19° North 403 464 19,700 1,200 Climbing Fort Worth Center
10:37PM 33.6667 -96.7494 11° North 423 487 20,000 1,320 Climbing Fort Worth Center
10:38PM 33.7978 -96.7111 14° North 439 505 22,400 1,500 Climbing Fort Worth Center
10:39PM 33.9039 -96.6478 26° Northeast 449 517 23,000 900 Climbing Fort Worth Center
10:40PM 34.0139 -96.5692 31° Northeast 449 517 24,200 1,380 Climbing Fort Worth Center
10:41PM 34.1178 -96.4953 30° Northeast 454 522 25,800 1,380 Climbing Fort Worth Center
10:42PM 34.2319 -96.4136 31° Northeast 454 522 27,000 1,200 Climbing Fort Worth Center
10:43PM 34.3522 -96.3217 32° Northeast 474 545 28,200 1,260 Climbing Fort Worth Center
10:44PM 34.4725 -96.2344 31° Northeast 493 567 29,600 1,440 Climbing Fort Worth Center
10:45PM 34.5864 -96.1372 35° Northeast 498 573 31,100 1,440 Climbing Fort Worth Center
10:46PM 34.6956 -96.0269 40° Northeast 503 579 32,500 1,380 Climbing Fort Worth Center
10:47PM 34.8072 -95.9189 38° Northeast 503 579 33,900 1,380 Climbing Fort Worth Center
10:48PM 34.9225 -95.8131 37° Northeast 509 586 35,300 1,380 Climbing Fort Worth Center
10:49PM 35.0317 -95.7044 39° Northeast 514 592 36,700 1,440 Climbing Fort Worth Center
10:50PM 35.1408 -95.5983 38° Northeast 509 586 38,200 840 Climbing Fort Worth Center
10:51PM 35.3261 -95.4161 39° Northeast 512 589 39,000 300 Climbing Memphis Center
10:52PM 35.4392 -95.3033 39° Northeast 512 589 39,000  Level Memphis Center
10:53PM 35.5519 -95.1900 39° Northeast 518 596 39,000  Level Memphis Center
10:54PM 35.6692 -95.0742 39° Northeast 524 603 39,000  Level Memphis Center
10:55PM 35.7839 -94.9556 40° Northeast 524 603 39,000  Level Memphis Center
10:56PM 35.8964 -94.8439 39° Northeast 524 603 39,000  Level Memphis Center
10:57PM 36.0111 -94.7294 39° Northeast 524 603 39,000  Level Memphis Center
10:58PM 36.1236 -94.6147 39° Northeast 519 597 39,000  Level Memphis Center
10:59PM 36.2336 -94.5022 40° Northeast 519 597 39,000  Level Memphis Center
11:01PM 36.4111 -94.3200 40° Northeast 516 594 39,000  Level Kansas City Center
11:02PM 36.5203 -94.2089 39° Northeast 512 589 39,000  Level Kansas City Center
11:03PM 36.6292 -94.0956 40° Northeast 511 588 39,000  Level Kansas City Center
11:04PM 36.7392 -93.9839 39° Northeast 511 588 39,000  Level Kansas City Center
11:05PM 36.8483 -93.8697 40° Northeast 512 589 39,000  Level Kansas City Center
11:06PM 36.9675 -93.7428 40° Northeast 505 581 39,000  Level Kansas City Center
11:07PM 37.0772 -93.6289 40° Northeast 507 583 39,000  Level Kansas City Center
11:08PM 37.1869 -93.5150 40° Northeast 510 587 39,000  Level Kansas City Center
11:09PM 37.2958 -93.4003 40° Northeast 509 586 39,000  Level Kansas City Center
11:10PM 37.4064 -93.2892 39° Northeast 508 585 39,000  Level Kansas City Center
11:11PM 37.5192 -93.1850 36° Northeast 502 578 39,000  Level Kansas City Center
11:12PM 37.6342 -93.0811 36° Northeast 503 579 39,000  Level Kansas City Center
11:13PM 37.7458 -92.9744 37° Northeast 502 578 39,000  Level Kansas City Center
11:14PM 37.8608 -92.8675 36° Northeast 505 581 39,000  Level Kansas City Center
11:15PM 37.9742 -92.7606 37° Northeast 503 579 39,000  Level Kansas City Center
11:16PM 38.0908 -92.6508 36° Northeast 503 579 39,000  Level Kansas City Center
11:17PM 38.2047 -92.5439 36° Northeast 505 581 39,000  Level Kansas City Center
11:18PM 38.3186 -92.4369 36° Northeast 503 579 39,000  Level Kansas City Center
11:19PM 38.4328 -92.3264 37° Northeast 506 582 39,000  Level Kansas City Center
11:20PM 38.5472 -92.2161 37° Northeast 510 587 39,000  Level Kansas City Center
11:21PM 38.6625 -92.1053 37° Northeast 513 590 39,000  Level Kansas City Center
11:22PM 38.7783 -91.9944 37° Northeast 516 594 39,000  Level Kansas City Center
11:23PM 38.8933 -91.8817 37° Northeast 518 596 39,000  Level Kansas City Center
11:24PM 39.0100 -91.7689 37° Northeast 521 600 39,000  Level Kansas City Center
11:25PM 39.1264 -91.6567 37° Northeast 521 600 39,000  Level Kansas City Center
11:26PM 39.2361 -91.5492 37° Northeast 522 601 39,000  Level Kansas City Center
11:27PM 39.3536 -91.4331 37° Northeast 528 608 39,000  Level Kansas City Center
11:28PM 39.4942 -91.2936 37° Northeast 528 608 39,000  Level Kansas City Center
11:29PM 39.6114 -91.1775 37° Northeast 529 609 39,000  Level Kansas City Center
11:30PM 39.7283 -91.0611 37° Northeast 529 609 39,000  Level Kansas City Center
11:31PM 39.8325 -90.9575 37° Northeast 528 608 39,000  Level Kansas City Center
11:32PM 39.9481 -90.8394 38° Northeast 529 609 39,000  Level Kansas City Center
11:33PM 40.0656 -90.7222 37° Northeast 530 610 39,000  Level Kansas City Center
11:34PM 40.2047 -90.5797 38° Northeast 529 609 39,000  Level Kansas City Center
11:36PM 40.3228 -90.4600 38° Northeast 534 615 39,000 -240 Level Kansas City Center
11:37PM 40.4406 -90.3400 38° Northeast 533 613 38,600 -600 Descending Kansas City Center
11:38PM 40.5425 -90.2339 38° Northeast 540 621 37,800 -1,020 Descending Kansas City Center
11:39PM 40.6636 -90.0575 48° Northeast 545 627 36,600 -1,080 Descending Kansas City Center
11:40PM 40.7722 -89.8917 49° Northeast 546 628 35,500 -1,260 Descending Chicago Center
11:41PM 40.8656 -89.7386 51° Northeast 536 617 33,900 -2,580 Descending Chicago Center
11:42PM 40.9639 -89.5872 49° Northeast 544 626 30,300 -3,480 Descending Chicago Center
11:43PM 41.0556 -89.4450 49° Northeast 534 615 26,900 -3,780 Descending Chicago Center
11:44PM 41.1647 -89.2731 50° Northeast 513 590 22,700 -3,840 Descending Chicago Center
11:45PM 41.2528 -89.1306 51° Northeast 491 565 19,100 -3,480 Descending Chicago Center
11:46PM 41.3333 -88.9992 51° Northeast 469 540 15,700 -3,360 Descending Chicago Center
11:47PM 41.4119 -88.8706 51° Northeast 452 520 12,300 -2,340 Descending Chicago Center
11:48PM 41.4864 -88.7519 50° Northeast 420 483 11,000 -600 Descending Chicago Center
11:49PM 41.5436 -88.6267 59° Northeast 403 464 11,100  Climbing Chicago Center
11:50PM 41.5950 -88.4983 62° Northeast 395 455 11,100 -60 Level Chicago Center
11:51PM 41.6564 -88.3814 55° Northeast 404 465 11,000 -60 Descending Chicago Center
11:52PM 41.7269 -88.2631 51° Northeast 398 458 11,000  Level Chicago Center
11:53PM 41.7975 -88.1439 52° Northeast 406 467 11,000 -240 Level Chicago Center
11:54PM 41.8633 -88.0256 53° Northeast 399 459 10,600 -660 Descending Chicago Center
11:55PM 41.8833 -87.9083 77° East 334 384 9,700 -1,500 Descending Chicago Center
11:56PM 41.8825 -87.7908 91° East 317 365 7,600 -2,100 Descending Chicago Center
11:57PM 41.8836 -87.6842 89° East 296 341 5,500 -2,280 Descending Chicago Center
11:58PM 41.9000 -87.6167 72° East 277 319 4,000 -960 Descending Chicago TRACON
11:59PM 41.9500 -87.6500 334° Northwest 219 252 4,000  Level Chicago TRACON